Terminal Aerodrome Forecast
Issued by NWS Wilmington, NC

Current Version | Previous Version | Graphics & Text | Print | Product List | Glossary Off
Versions: 1 2 3 4 5 6 7 8 9 10 11 12 13 14 15 16 17 18 19

029
FTUS42 KILM 222320
TAFFLO
TAF
KFLO 222320Z 2300/2324 19007KT P6SM SCT100
     FM230600 22003KT P6SM SKC
      TEMPO 2308/2312 5SM BR
     FM231300 23006KT P6SM SCT030 SCT250
     FM231800 23007KT P6SM SCT045 SCT250
     FM232000 22007KT P6SM BKN050=

USA.gov is the U.S. government's official web portal to all federal, state and local government web resources and services.